Time;durP1;ratioP1;P1;durP2;ratioP2;P2;SDS_P1;SDS_P2;PMS_P1;PMS_P2;Temp;Humidity;BMP_temperature;BMP_pressure;BME280_temperature;BME280_humidity;BME280_pressure;Samples;Min_cycle;Max_cycle;Signal;HPM_P1;HPM_P2
2021/12/11 00:01:54;;;;;;;6.75;0.98;;;19.10;99.90;;;;;;5020948;28;20033;-67
2021/12/11 00:04:29;;;;;;;8.45;1.35;;;19.10;99.90;;;;;;5017733;28;20050;-67
2021/12/11 00:06:58;;;;;;;6.57;1.17;;;19.00;99.90;;;;;;5005563;28;20022;-66
2021/12/11 00:09:28;;;;;;;7.10;1.10;;;18.90;99.90;;;;;;5022844;28;20029;-66
2021/12/11 00:12:09;;;;;;;8.27;0.80;;;19.10;99.90;;;;;;5026884;28;20109;-66
2021/12/11 00:14:41;;;;;;;6.30;0.90;;;19.20;99.90;;;;;;5026044;28;20022;-66
2021/12/11 00:17:08;;;;;;;5.82;0.82;;;19.20;99.90;;;;;;5025619;28;20033;-66
2021/12/11 00:19:40;;;;;;;5.00;1.45;;;19.30;99.90;;;;;;5028757;28;20088;-67
2021/12/11 00:22:15;;;;;;;6.32;0.90;;;19.40;99.90;;;;;;5025646;28;20029;-66
2021/12/11 00:24:44;;;;;;;12.32;1.02;;;19.40;99.90;;;;;;5022775;28;20089;-66
2021/12/11 00:27:20;;;;;;;9.77;1.10;;;19.60;99.90;;;;;;5022732;28;20057;-66
2021/12/11 00:29:48;;;;;;;3.85;1.10;;;19.50;99.90;;;;;;5041404;28;20022;-66
2021/12/11 00:32:31;;;;;;;4.28;0.77;;;19.50;99.90;;;;;;5027840;28;20033;-67
2021/12/11 00:35:07;;;;;;;4.32;0.52;;;19.60;99.90;;;;;;5008396;28;20033;-66
2021/12/11 00:37:34;;;;;;;4.43;0.57;;;20.00;99.90;;;;;;5007541;28;20391;-67
2021/12/11 00:40:24;;;;;;;9.77;1.00;;;20.20;99.90;;;;;;5023073;28;20418;-67
2021/12/11 00:42:56;;;;;;;6.60;1.30;;;20.50;99.90;;;;;;5023873;28;20482;-66
2021/12/11 00:45:29;;;;;;;3.65;0.82;;;20.20;99.90;;;;;;5024112;28;20029;-66
2021/12/11 00:48:01;;;;;;;8.27;1.02;;;20.20;99.90;;;;;;5024154;28;20077;-66
2021/12/11 00:50:32;;;;;;;4.43;0.85;;;20.20;99.90;;;;;;5026956;28;20022;-65
2021/12/11 00:53:08;;;;;;;5.45;0.80;;;20.40;99.90;;;;;;5027192;28;20026;-65
2021/12/11 00:55:43;;;;;;;3.72;0.88;;;20.70;99.90;;;;;;5026447;28;20025;-66
2021/12/11 00:58:18;;;;;;;6.07;0.60;;;20.60;99.90;;;;;;5028461;28;20501;-66
2021/12/11 01:00:55;;;;;;;4.57;0.65;;;20.40;99.90;;;;;;5048818;28;20030;-66
2021/12/11 01:03:34;;;;;;;6.20;0.73;;;20.10;99.90;;;;;;5050348;28;20033;-65
2021/12/11 01:06:08;;;;;;;5.38;1.25;;;20.00;99.90;;;;;;5037900;28;20038;-66
2021/12/11 01:08:40;;;;;;;4.53;1.02;;;19.90;99.90;;;;;;5023386;28;20117;-66
2021/12/11 01:11:18;;;;;;;5.40;1.13;;;20.00;99.90;;;;;;5022600;28;20050;-66
2021/12/11 01:14:04;;;;;;;2.50;0.50;;;20.30;99.90;;;;;;5039396;28;20026;-66
2021/12/11 01:16:31;;;;;;;2.72;0.43;;;20.30;99.90;;;;;;5038489;28;20022;-66
2021/12/11 01:19:03;;;;;;;6.15;0.93;;;20.60;99.90;;;;;;5022937;28;20398;-65
2021/12/11 01:24:29;;;;;;;4.82;0.77;;;20.60;99.90;;;;;;5025098;28;20026;-66
2021/12/11 01:27:01;;;;;;;3.60;1.02;;;20.40;99.90;;;;;;5030287;28;20026;-66
2021/12/11 01:29:30;;;;;;;10.30;1.02;;;20.40;99.90;;;;;;5024606;28;20042;-66
2021/12/11 01:31:59;;;;;;;5.53;0.57;;;20.10;99.90;;;;;;5025404;28;20041;-66
2021/12/11 01:34:30;;;;;;;2.85;0.47;;;19.70;99.90;;;;;;5025006;28;20053;-66
2021/12/11 01:36:59;;;;;;;7.00;0.85;;;19.70;99.90;;;;;;5023498;28;20028;-67
2021/12/11 01:39:31;;;;;;;2.17;0.50;;;19.80;99.90;;;;;;5029686;28;20026;-66
2021/12/11 01:42:00;;;;;;;1.80;0.32;;;20.10;99.90;;;;;;5027502;28;20022;-67
2021/12/11 01:44:31;;;;;;;5.15;1.23;;;20.70;99.90;;;;;;5031542;28;20033;-66
2021/12/11 01:47:09;;;;;;;4.82;0.80;;;20.80;99.90;;;;;;5025256;28;20078;-67
2021/12/11 01:49:39;;;;;;;3.55;0.60;;;20.80;99.90;;;;;;5027563;28;20033;-66
2021/12/11 01:52:26;;;;;;;5.45;0.80;;;21.10;99.90;;;;;;5024414;28;20061;-66
2021/12/11 01:54:54;;;;;;;3.33;0.75;;;21.60;99.90;;;;;;5025003;28;20030;-66
2021/12/11 01:57:25;;;;;;;6.68;1.05;;;21.70;99.90;;;;;;5009016;28;20443;-66
2021/12/11 02:00:01;;;;;;;4.03;0.57;;;21.60;99.90;;;;;;5015755;28;20103;-68
2021/12/11 02:02:36;;;;;;;4.80;1.27;;;21.50;99.90;;;;;;5025986;28;20033;-66
2021/12/11 02:05:06;;;;;;;2.00;0.55;;;21.30;99.90;;;;;;5015485;28;20046;-66
2021/12/11 02:07:43;;;;;;;5.13;2.10;;;21.20;99.90;;;;;;5026890;28;20041;-66
2021/12/11 02:10:23;;;;;;;3.83;0.60;;;21.20;99.90;;;;;;5028684;28;20085;-67
2021/12/11 02:12:52;;;;;;;5.72;0.88;;;21.10;99.90;;;;;;5027938;28;20118;-66
2021/12/11 02:15:31;;;;;;;5.25;0.52;;;21.10;99.90;;;;;;5028787;28;20033;-66
2021/12/11 02:18:12;;;;;;;4.55;0.50;;;20.90;99.90;;;;;;5035498;28;20030;-66
2021/12/11 02:20:53;;;;;;;2.33;0.70;;;20.90;99.90;;;;;;5043811;28;20050;-66
2021/12/11 02:23:21;;;;;;;2.67;0.40;;;20.60;99.90;;;;;;5027488;28;20088;-66
2021/12/11 02:25:51;;;;;;;2.92;0.43;;;20.90;99.90;;;;;;5026216;28;20026;-67
2021/12/11 02:28:37;;;;;;;2.15;0.40;;;21.10;99.90;;;;;;5025922;28;20046;-67
2021/12/11 02:31:37;;;;;;;3.88;0.47;;;21.10;99.90;;;;;;5024960;28;20033;-66
2021/12/11 02:34:21;;;;;;;4.45;0.80;;;21.20;99.90;;;;;;5027033;28;20391;-65
2021/12/11 02:36:58;;;;;;;3.40;0.77;;;21.40;99.90;;;;;;5025167;28;20032;-66
2021/12/11 02:39:28;;;;;;;6.93;0.77;;;21.20;99.90;;;;;;5025911;28;20038;-66
2021/12/11 02:42:05;;;;;;;6.80;0.75;;;21.00;99.90;;;;;;5025357;28;20017;-66
2021/12/11 02:44:43;;;;;;;2.60;0.52;;;21.40;99.90;;;;;;5024993;28;20122;-67
2021/12/11 02:47:16;;;;;;;4.07;0.65;;;21.70;99.90;;;;;;5023047;28;20026;-66
2021/12/11 02:49:53;;;;;;;6.28;0.70;;;21.50;99.90;;;;;;5021562;28;20121;-66
2021/12/11 02:52:44;;;;;;;3.90;0.60;;;21.90;99.90;;;;;;5021679;28;20080;-66
2021/12/11 02:55:20;;;;;;;5.88;1.15;;;22.10;99.90;;;;;;5026264;28;20080;-66
2021/12/11 02:58:01;;;;;;;5.85;0.75;;;21.90;99.90;;;;;;5024422;28;20022;-66
2021/12/11 03:00:44;;;;;;;5.47;0.80;;;21.60;99.90;;;;;;5031537;28;20033;-66
2021/12/11 03:03:14;;;;;;;12.10;1.02;;;21.40;99.90;;;;;;5030411;28;20025;-66
2021/12/11 03:05:54;;;;;;;5.78;1.10;;;21.70;99.90;;;;;;5034066;28;20038;-69
2021/12/11 03:08:22;;;;;;;6.47;0.90;;;21.50;99.90;;;;;;5046985;28;20053;-66
2021/12/11 03:10:55;;;;;;;6.05;0.77;;;21.40;99.90;;;;;;5010960;28;20046;-65
2021/12/11 03:13:23;;;;;;;4.88;0.68;;;21.60;99.90;;;;;;5018641;28;20026;-66
2021/12/11 03:15:51;;;;;;;4.60;1.13;;;21.70;99.90;;;;;;5032765;28;20014;-66
2021/12/11 03:18:19;;;;;;;4.53;0.85;;;21.50;99.90;;;;;;5030586;28;20025;-66
2021/12/11 03:20:48;;;;;;;5.25;0.50;;;21.60;99.90;;;;;;5030833;28;20109;-66
2021/12/11 03:23:16;;;;;;;4.10;1.02;;;21.40;99.90;;;;;;5031263;28;20010;-66
2021/12/11 03:25:45;;;;;;;2.85;0.68;;;21.20;99.90;;;;;;5033906;28;20026;-66
2021/12/11 03:28:16;;;;;;;2.45;0.52;;;21.30;99.90;;;;;;5030709;28;20041;-66
2021/12/11 03:30:50;;;;;;;5.13;0.50;;;21.30;99.90;;;;;;5034125;28;20056;-65
2021/12/11 03:33:19;;;;;;;2.95;0.30;;;21.30;99.90;;;;;;5031504;28;20042;-66
2021/12/11 03:35:48;;;;;;;10.90;0.60;;;20.70;99.90;;;;;;5025679;28;20037;-66
2021/12/11 03:38:16;;;;;;;3.53;0.75;;;20.40;99.90;;;;;;5030033;28;20026;-65
2021/12/11 03:40:44;;;;;;;3.70;0.52;;;20.40;99.90;;;;;;5032051;28;20050;-65
2021/12/11 03:43:13;;;;;;;5.22;1.17;;;20.60;99.90;;;;;;5030165;28;20081;-66
2021/12/11 03:45:44;;;;;;;5.63;0.95;;;20.90;99.90;;;;;;5030034;28;20041;-65
2021/12/11 03:48:29;;;;;;;8.30;1.15;;;20.80;99.90;;;;;;5021480;28;20064;-66
2021/12/11 03:50:58;;;;;;;3.45;0.45;;;20.80;99.90;;;;;;5031752;28;20025;-65
2021/12/11 03:53:26;;;;;;;6.00;1.05;;;20.90;99.90;;;;;;5047822;28;20053;-66
2021/12/11 03:55:57;;;;;;;5.75;0.60;;;20.80;99.90;;;;;;5032553;28;20033;-66
2021/12/11 03:58:25;;;;;;;6.95;0.85;;;20.70;99.90;;;;;;5026812;28;20034;-65
2021/12/11 04:00:57;;;;;;;5.22;0.50;;;20.90;99.90;;;;;;5029697;28;20049;-65
2021/12/11 04:03:28;;;;;;;3.42;0.57;;;20.80;99.90;;;;;;5030613;28;20033;-67
2021/12/11 04:05:57;;;;;;;5.50;0.88;;;20.70;99.90;;;;;;5028963;28;20018;-68
2021/12/11 04:08:27;;;;;;;2.17;0.57;;;20.70;99.90;;;;;;5031727;28;20044;-66
2021/12/11 04:10:56;;;;;;;3.45;0.60;;;20.70;99.90;;;;;;5032609;28;20052;-66
2021/12/11 04:13:24;;;;;;;3.40;0.30;;;20.60;99.90;;;;;;5027176;28;20053;-66
2021/12/11 04:15:54;;;;;;;5.18;0.77;;;20.80;99.90;;;;;;5023777;28;20030;-65
2021/12/11 04:18:22;;;;;;;4.85;0.35;;;20.80;99.90;;;;;;5027551;28;20033;-67
2021/12/11 04:20:50;;;;;;;1.95;0.73;;;20.90;99.90;;;;;;5029528;28;20026;-68
2021/12/11 04:23:20;;;;;;;3.10;0.30;;;20.80;99.90;;;;;;5027452;28;20037;-66
2021/12/11 04:25:51;;;;;;;1.65;0.30;;;20.80;99.90;;;;;;5023383;28;20018;-66
2021/12/11 04:28:20;;;;;;;3.40;0.60;;;20.90;99.90;;;;;;5028423;28;20144;-67
2021/12/11 04:30:52;;;;;;;3.88;0.40;;;20.80;99.90;;;;;;5029190;28;20029;-66
2021/12/11 04:33:20;;;;;;;3.70;0.93;;;20.60;99.90;;;;;;5028296;28;20032;-66
2021/12/11 04:35:48;;;;;;;4.32;0.70;;;20.40;99.90;;;;;;5012483;28;20030;-67
2021/12/11 04:38:16;;;;;;;3.70;1.08;;;20.40;99.90;;;;;;5013355;28;20030;-67
2021/12/11 04:40:49;;;;;;;3.60;0.70;;;20.60;99.90;;;;;;5027399;28;20123;-66
2021/12/11 04:43:20;;;;;;;2.15;0.40;;;20.70;99.90;;;;;;5016121;28;20064;-66
2021/12/11 04:45:59;;;;;;;4.65;0.60;;;20.80;99.90;;;;;;5029872;28;20033;-65
2021/12/11 04:51:16;;;;;;;2.42;0.52;;;20.60;99.90;;;;;;5025952;28;20018;-66
2021/12/11 04:54:09;;;;;;;3.05;0.60;;;20.80;99.90;;;;;;5027244;28;20033;-65
2021/12/11 05:05:31;;;;;;;4.60;0.82;;;20.50;99.90;;;;;;5029480;28;20052;-65
2021/12/11 05:08:02;;;;;;;3.55;0.80;;;20.50;99.90;;;;;;5027798;28;20049;-65
2021/12/11 05:10:58;;;;;;;4.05;1.15;;;20.50;99.90;;;;;;5028002;28;20056;-66
2021/12/11 05:13:21;;;;;;;2.65;1.02;;;20.80;99.90;;;;;;5029163;28;20090;-65
2021/12/11 05:15:51;;;;;;;6.40;0.73;;;21.00;99.90;;;;;;5030067;28;20486;-66
2021/12/11 05:18:22;;;;;;;4.05;0.70;;;20.80;99.90;;;;;;5027687;28;20064;-67
2021/12/11 05:20:53;;;;;;;4.75;0.50;;;20.70;99.90;;;;;;5033795;28;20026;-66
2021/12/11 05:23:21;;;;;;;5.72;0.85;;;20.50;99.90;;;;;;5031384;28;20033;-66
2021/12/11 05:25:50;;;;;;;4.18;0.70;;;20.90;99.90;;;;;;5026601;28;20080;-66
2021/12/11 05:28:17;;;;;;;8.73;1.00;;;20.70;99.90;;;;;;5020442;28;20038;-67
2021/12/11 05:30:48;;;;;;;7.05;0.77;;;20.50;99.90;;;;;;5028508;28;20088;-66
2021/12/11 05:33:17;;;;;;;4.70;0.85;;;20.60;99.90;;;;;;5026157;28;20036;-66
2021/12/11 05:35:45;;;;;;;5.47;1.30;;;20.60;99.90;;;;;;5024913;28;20029;-67
2021/12/11 05:38:17;;;;;;;5.05;0.98;;;20.80;99.90;;;;;;5018559;28;20014;-66
2021/12/11 05:40:49;;;;;;;4.60;1.10;;;20.80;99.90;;;;;;5024346;28;20037;-67
2021/12/11 05:43:16;;;;;;;8.15;1.30;;;20.70;99.90;;;;;;5026410;28;20033;-66
2021/12/11 05:45:44;;;;;;;6.60;0.73;;;20.40;99.90;;;;;;5025028;28;20022;-66
2021/12/11 05:48:12;;;;;;;4.57;0.90;;;20.60;99.90;;;;;;5021976;28;20391;-64
2021/12/11 05:50:49;;;;;;;9.57;0.63;;;20.40;99.90;;;;;;5020085;28;20033;-66
2021/12/11 05:53:18;;;;;;;3.83;0.60;;;20.60;99.90;;;;;;5028923;28;20038;-64
2021/12/11 05:55:47;;;;;;;3.70;0.70;;;20.70;99.90;;;;;;5025466;28;20076;-65
2021/12/11 05:58:24;;;;;;;5.68;0.95;;;20.90;99.90;;;;;;5025148;28;20030;-66
2021/12/11 06:00:53;;;;;;;5.70;0.95;;;20.80;99.90;;;;;;5025213;28;20022;-65
2021/12/11 06:03:21;;;;;;;5.43;0.93;;;20.60;99.90;;;;;;5025403;28;20045;-67
2021/12/11 06:05:48;;;;;;;5.35;1.10;;;20.50;99.90;;;;;;5023157;28;20040;-67
2021/12/11 06:08:16;;;;;;;8.30;1.10;;;20.40;99.90;;;;;;5031152;28;20065;-67
2021/12/11 06:10:45;;;;;;;4.15;0.70;;;20.20;99.90;;;;;;5023224;28;20116;-65
2021/12/11 06:13:12;;;;;;;5.72;0.73;;;20.40;99.90;;;;;;5018396;28;20018;-67
2021/12/11 06:15:40;;;;;;;4.30;0.73;;;20.50;99.90;;;;;;5023887;28;20029;-66
2021/12/11 06:18:13;;;;;;;3.40;0.50;;;20.50;99.90;;;;;;5027280;28;20126;-68
2021/12/11 06:20:41;;;;;;;3.83;0.60;;;20.40;99.90;;;;;;5030461;28;20034;-65
2021/12/11 06:23:09;;;;;;;7.65;1.08;;;20.40;99.90;;;;;;5027013;28;20667;-65
2021/12/11 06:25:37;;;;;;;9.43;1.25;;;20.50;99.90;;;;;;5027712;28;20049;-66
2021/12/11 06:28:06;;;;;;;9.95;1.50;;;20.30;99.90;;;;;;5028011;28;20104;-66
2021/12/11 06:30:34;;;;;;;7.55;1.25;;;20.50;99.90;;;;;;5026113;28;20025;-66
2021/12/11 06:33:03;;;;;;;6.20;0.93;;;20.70;99.90;;;;;;5023500;28;20022;-65
2021/12/11 06:35:40;;;;;;;5.18;0.70;;;20.90;99.90;;;;;;5028396;28;20014;-66
2021/12/11 06:38:10;;;;;;;8.93;1.45;;;21.00;99.90;;;;;;5029449;28;20034;-65
2021/12/11 06:40:39;;;;;;;5.03;0.82;;;21.10;99.90;;;;;;5022479;28;20117;-66
2021/12/11 06:43:06;;;;;;;6.88;0.70;;;21.20;99.90;;;;;;5031514;28;20038;-66
2021/12/11 06:45:34;;;;;;;4.72;0.93;;;20.80;99.90;;;;;;5033062;28;20018;-66
2021/12/11 06:48:01;;;;;;;4.57;0.63;;;20.40;99.90;;;;;;5024767;28;20033;-66
2021/12/11 06:50:28;;;;;;;4.85;0.80;;;20.40;99.90;;;;;;5028744;28;20033;-66
2021/12/11 06:52:56;;;;;;;6.10;0.82;;;20.20;99.90;;;;;;5027667;28;20110;-66
2021/12/11 06:55:24;;;;;;;8.75;0.82;;;20.00;99.90;;;;;;5031548;28;20021;-66
2021/12/11 06:57:51;;;;;;;8.63;1.00;;;19.70;99.90;;;;;;5021978;28;20161;-65
2021/12/11 07:00:20;;;;;;;4.00;0.60;;;19.70;99.90;;;;;;5031867;28;20022;-66
2021/12/11 07:02:48;;;;;;;6.60;1.00;;;19.80;99.90;;;;;;5026502;28;20033;-66
2021/12/11 07:05:16;;;;;;;8.85;1.30;;;20.20;99.90;;;;;;5023984;28;20225;-66
2021/12/11 07:07:43;;;;;;;4.72;1.27;;;20.10;99.90;;;;;;5029696;28;20050;-67
2021/12/11 07:10:14;;;;;;;7.03;0.88;;;20.00;99.90;;;;;;5023789;28;20034;-66
2021/12/11 07:12:41;;;;;;;5.10;1.45;;;20.00;99.90;;;;;;5020620;28;20030;-65
2021/12/11 07:15:11;;;;;;;4.03;1.48;;;19.80;99.90;;;;;;5036699;28;20048;-66
2021/12/11 07:17:39;;;;;;;5.03;1.63;;;20.20;99.90;;;;;;5035296;28;20109;-66
2021/12/11 07:20:09;;;;;;;5.82;1.60;;;20.20;99.90;;;;;;5017334;28;20040;-66
2021/12/11 07:22:40;;;;;;;5.68;0.90;;;20.20;99.90;;;;;;5016227;28;20386;-67
2021/12/11 07:25:11;;;;;;;9.55;1.73;;;19.70;99.90;;;;;;5013501;28;20042;-66
2021/12/11 07:27:39;;;;;;;9.25;2.10;;;19.50;99.90;;;;;;4998591;28;20112;-66
2021/12/11 07:30:07;;;;;;;10.20;1.88;;;19.30;99.90;;;;;;5014311;28;20494;-66
2021/12/11 07:32:34;;;;;;;12.70;1.75;;;19.10;99.90;;;;;;5014717;28;20034;-66
2021/12/11 07:35:01;;;;;;;14.93;2.42;;;18.90;99.90;;;;;;5011608;28;20146;-66
2021/12/11 07:37:29;;;;;;;6.65;1.05;;;18.80;99.90;;;;;;4997724;28;20023;-65
2021/12/11 07:39:56;;;;;;;7.88;0.90;;;18.80;99.90;;;;;;5015604;28;20026;-66
2021/12/11 07:42:23;;;;;;;6.28;1.13;;;18.80;99.90;;;;;;5016441;28;20025;-65
2021/12/11 07:44:50;;;;;;;6.38;0.70;;;18.80;99.90;;;;;;5016239;28;20029;-64
2021/12/11 07:47:18;;;;;;;5.53;0.82;;;18.70;99.90;;;;;;5018173;28;20381;-65
2021/12/11 07:49:45;;;;;;;6.65;1.27;;;18.70;99.90;;;;;;5015692;28;20022;-65
2021/12/11 07:52:12;;;;;;;8.00;1.88;;;18.70;99.90;;;;;;5015568;28;20022;-65
2021/12/11 07:54:40;;;;;;;9.02;1.38;;;18.70;99.90;;;;;;5013913;28;20034;-66
2021/12/11 07:57:07;;;;;;;5.20;1.05;;;18.60;99.90;;;;;;5016291;28;20026;-66
2021/12/11 07:59:34;;;;;;;7.35;1.33;;;18.60;99.90;;;;;;5015938;28;20030;-65
2021/12/11 08:02:02;;;;;;;6.03;0.88;;;18.50;99.90;;;;;;5015467;28;20022;-66
2021/12/11 08:04:29;;;;;;;6.43;1.60;;;18.50;99.90;;;;;;5014981;28;20153;-65
2021/12/11 08:06:56;;;;;;;8.85;1.42;;;18.40;99.90;;;;;;5015615;28;20026;-66
2021/12/11 08:09:25;;;;;;;8.00;1.00;;;18.30;99.90;;;;;;5014074;28;20028;-66
2021/12/11 08:11:53;;;;;;;7.78;1.67;;;18.30;99.90;;;;;;5015323;28;20076;-66
2021/12/11 08:14:23;;;;;;;12.05;1.90;;;18.30;99.90;;;;;;5029732;28;20034;-66
2021/12/11 08:16:54;;;;;;;10.70;1.30;;;18.30;99.90;;;;;;5015803;28;20022;-65
2021/12/11 08:19:24;;;;;;;7.60;1.10;;;18.20;99.90;;;;;;5026741;28;20088;-66
2021/12/11 08:21:54;;;;;;;10.65;2.08;;;18.20;99.90;;;;;;4996847;28;20513;-63
2021/12/11 08:24:23;;;;;;;7.13;1.10;;;18.30;99.90;;;;;;5014262;28;20022;-65
2021/12/11 08:26:53;;;;;;;9.25;2.47;;;18.40;99.90;;;;;;5019156;28;20402;-64
2021/12/11 08:29:21;;;;;;;8.73;2.17;;;18.30;99.90;;;;;;5016843;28;20064;-65
2021/12/11 08:31:52;;;;;;;7.93;1.73;;;18.20;99.90;;;;;;5018597;28;20034;-66
2021/12/11 08:34:20;;;;;;;6.65;1.30;;;18.00;99.90;;;;;;5022190;28;20030;-65
2021/12/11 08:36:48;;;;;;;14.18;2.10;;;17.80;99.90;;;;;;5025190;28;20036;-65
2021/12/11 08:39:17;;;;;;;9.80;1.58;;;17.80;99.90;;;;;;5018650;28;20359;-66
2021/12/11 08:41:47;;;;;;;14.05;1.75;;;17.80;99.90;;;;;;5018241;28;20037;-66
2021/12/11 08:44:17;;;;;;;9.25;1.15;;;17.70;99.90;;;;;;5019537;28;20496;-66
2021/12/11 08:46:51;;;;;;;7.28;1.45;;;17.70;99.90;;;;;;5021004;28;20025;-65
2021/12/11 08:49:23;;;;;;;9.32;1.65;;;17.80;99.90;;;;;;5030661;28;20010;-65
2021/12/11 08:51:57;;;;;;;13.55;2.50;;;17.80;99.90;;;;;;5031802;28;20502;-65
2021/12/11 08:54:27;;;;;;;6.07;1.20;;;17.70;99.90;;;;;;5020627;28;20049;-65
2021/12/11 08:56:55;;;;;;;7.80;1.60;;;17.70;99.90;;;;;;5021369;28;20460;-65
2021/12/11 08:59:26;;;;;;;17.50;2.72;;;17.70;99.90;;;;;;5020967;28;20100;-65
2021/12/11 09:02:17;;;;;;;13.40;2.05;;;17.70;99.90;;;;;;5034746;28;20441;-64
2021/12/11 09:04:48;;;;;;;12.73;2.63;;;17.60;99.90;;;;;;5032004;28;20040;-65
2021/12/11 09:07:27;;;;;;;13.27;2.03;;;17.60;99.90;;;;;;5019861;28;20058;-65
2021/12/11 09:10:21;;;;;;;6.25;1.02;;;17.60;99.90;;;;;;5018578;28;20030;-65
2021/12/11 09:12:55;;;;;;;7.78;1.38;;;17.60;99.90;;;;;;5014763;28;20046;-64
2021/12/11 09:15:27;;;;;;;10.38;2.10;;;17.50;99.90;;;;;;5005277;28;20041;-65
2021/12/11 09:17:55;;;;;;;6.82;1.35;;;17.60;99.90;;;;;;4997772;28;20562;-64
2021/12/11 09:20:51;;;;;;;8.85;1.92;;;17.50;99.90;;;;;;4999746;28;20022;-65
2021/12/11 09:23:31;;;;;;;7.70;1.08;;;17.50;99.90;;;;;;5015805;28;20097;-64
2021/12/11 09:26:06;;;;;;;9.35;1.52;;;17.50;99.90;;;;;;5000959;28;20022;-65
2021/12/11 09:28:43;;;;;;;9.82;1.77;;;17.50;99.90;;;;;;5016012;28;20053;-64
2021/12/11 09:31:16;;;;;;;8.65;1.35;;;17.40;99.90;;;;;;5008981;28;20085;-64
2021/12/11 09:33:52;;;;;;;9.85;1.67;;;17.40;99.90;;;;;;5015129;28;20474;-64
2021/12/11 09:36:25;;;;;;;10.38;2.13;;;17.40;99.90;;;;;;5018744;28;20034;-65
2021/12/11 09:39:06;;;;;;;7.03;1.65;;;17.40;99.90;;;;;;5018122;28;20390;-65
2021/12/11 09:41:33;;;;;;;9.80;1.83;;;17.30;99.90;;;;;;5035278;28;20119;-64
2021/12/11 09:44:20;;;;;;;9.98;2.08;;;17.40;99.90;;;;;;5018781;28;20022;-64
2021/12/11 09:46:54;;;;;;;8.10;1.38;;;17.40;99.90;;;;;;5018285;28;20033;-65
2021/12/11 09:49:25;;;;;;;10.18;1.80;;;17.40;99.90;;;;;;5018224;28;20025;-64
2021/12/11 09:52:03;;;;;;;14.02;2.35;;;17.40;99.90;;;;;;5017800;28;20097;-65
2021/12/11 09:54:35;;;;;;;9.88;1.75;;;17.40;99.90;;;;;;5015867;28;20034;-65
2021/12/11 09:57:08;;;;;;;15.25;1.80;;;17.40;99.90;;;;;;5016874;28;20141;-65
2021/12/11 09:59:39;;;;;;;11.25;1.85;;;17.40;99.90;;;;;;5018140;28;20029;-65
2021/12/11 10:02:16;;;;;;;13.07;1.95;;;17.30;99.90;;;;;;5017078;28;20032;-65
2021/12/11 10:05:19;;;;;;;14.38;1.80;;;17.30;99.90;;;;;;5019925;28;20538;-64
2021/12/11 10:08:02;;;;;;;9.13;1.50;;;17.30;99.90;;;;;;5017283;28;20482;-65
2021/12/11 10:10:30;;;;;;;19.50;2.20;;;17.30;99.90;;;;;;5016102;28;20080;-65
2021/12/11 10:12:59;;;;;;;8.18;1.63;;;17.30;99.90;;;;;;5015738;28;20022;-65
2021/12/11 10:15:30;;;;;;;12.75;2.50;;;17.20;99.90;;;;;;5017306;28;20591;-64
2021/12/11 10:18:06;;;;;;;9.00;2.20;;;17.20;99.90;;;;;;5016829;28;20028;-65
2021/12/11 10:20:38;;;;;;;10.70;2.75;;;17.20;99.90;;;;;;5017281;28;20024;-64
2021/12/11 10:23:09;;;;;;;11.18;1.98;;;17.20;99.90;;;;;;5017056;28;20037;-64
2021/12/11 10:25:39;;;;;;;12.10;1.75;;;17.10;99.90;;;;;;5018618;28;20021;-65
2021/12/11 10:28:11;;;;;;;17.95;2.42;;;17.10;99.90;;;;;;5016626;28;20410;-65
2021/12/11 10:30:44;;;;;;;14.00;1.83;;;17.00;99.90;;;;;;5017564;28;20018;-64
2021/12/11 10:33:14;;;;;;;15.80;3.17;;;17.00;99.90;;;;;;5016833;28;20100;-64
2021/12/11 10:35:49;;;;;;;11.00;1.83;;;17.00;99.90;;;;;;5029647;28;20033;-64
2021/12/11 10:38:18;;;;;;;9.15;1.75;;;16.90;99.90;;;;;;5011148;28;20022;-63
2021/12/11 10:40:52;;;;;;;13.07;2.45;;;16.90;99.90;;;;;;5014627;28;20049;-64
2021/12/11 10:43:24;;;;;;;;;;;16.90;99.90;;;;;;5015105;28;20022;-64
2021/12/11 10:45:57;;;;;;;7.68;1.90;;;16.90;99.90;;;;;;5014132;28;19996;-64
2021/12/11 10:48:29;;;;;;;12.93;1.58;;;16.80;99.90;;;;;;5013479;28;20057;-64
2021/12/11 10:51:05;;;;;;;8.55;1.95;;;16.70;99.90;;;;;;5013570;28;20040;-64
2021/12/11 10:53:34;;;;;;;7.38;1.42;;;16.80;99.90;;;;;;5014649;28;20510;-64
2021/12/11 10:56:08;;;;;;;7.93;2.10;;;16.70;99.90;;;;;;5014304;28;20598;-64
2021/12/11 10:58:47;;;;;;;;;;;16.70;99.90;;;;;;5014904;28;20494;-64
2021/12/11 11:01:27;;;;;;;10.25;2.05;;;16.60;99.90;;;;;;5014037;28;20000;-64
2021/12/11 11:04:04;;;;;;;6.88;0.98;;;16.70;99.90;;;;;;5024425;28;20041;-63
2021/12/11 11:06:32;;;;;;;10.55;1.85;;;16.70;99.90;;;;;;5012904;28;20038;-64
2021/12/11 11:09:00;;;;;;;8.98;1.08;;;16.70;99.90;;;;;;5012384;28;20109;-64
2021/12/11 11:11:29;;;;;;;7.20;0.90;;;16.70;99.90;;;;;;5010857;28;20103;-64
2021/12/11 11:13:59;;;;;;;9.93;1.55;;;16.60;99.90;;;;;;5027423;28;20121;-64
2021/12/11 11:16:26;;;;;;;7.05;1.05;;;16.60;99.90;;;;;;5011170;28;20046;-64
2021/12/11 11:18:54;;;;;;;7.78;1.15;;;16.60;99.90;;;;;;5011166;28;20029;-64
2021/12/11 11:21:30;;;;;;;10.40;2.00;;;16.60;99.90;;;;;;5012799;28;20053;-64
2021/12/11 11:23:57;;;;;;;6.68;1.35;;;16.60;99.90;;;;;;5012909;28;20108;-64
2021/12/11 11:26:34;;;;;;;9.27;1.95;;;16.50;99.90;;;;;;5014531;28;20034;-64
2021/12/11 11:29:05;;;;;;;7.03;1.35;;;16.50;99.90;;;;;;5015949;28;20387;-64
2021/12/11 11:31:37;;;;;;;7.97;1.80;;;16.50;99.90;;;;;;4998425;28;20032;-65
2021/12/11 11:34:08;;;;;;;9.48;1.92;;;16.40;99.90;;;;;;5015724;28;20025;-64
2021/12/11 11:36:36;;;;;;;15.85;2.15;;;16.50;99.90;;;;;;5016421;28;20162;-64
2021/12/11 11:39:09;;;;;;;10.85;2.35;;;16.50;99.90;;;;;;5002777;28;20022;-64
2021/12/11 11:41:44;;;;;;;10.68;1.70;;;16.50;99.90;;;;;;4994848;28;20369;-64
2021/12/11 11:44:13;;;;;;;12.45;2.97;;;16.50;99.90;;;;;;4996298;28;20026;-64
2021/12/11 11:46:42;;;;;;;10.80;1.83;;;16.50;99.90;;;;;;5002436;28;20049;-64
2021/12/11 11:49:13;;;;;;;7.70;2.65;;;16.50;99.90;;;;;;5015732;28;20470;-64
2021/12/11 11:51:53;;;;;;;9.82;1.33;;;16.50;99.90;;;;;;5015845;28;20097;-64
2021/12/11 11:54:22;;;;;;;13.35;1.45;;;16.50;99.90;;;;;;5015604;28;20026;-64
2021/12/11 11:57:19;;;;;;;11.15;2.42;;;16.50;99.90;;;;;;5012971;28;20025;-64
2021/12/11 11:59:48;;;;;;;8.23;1.48;;;16.30;99.90;;;;;;4995685;28;20028;-64
2021/12/11 12:02:23;;;;;;;8.75;2.30;;;16.40;99.90;;;;;;4994700;28;20121;-64
2021/12/11 12:04:55;;;;;;;12.68;3.00;;;16.40;99.90;;;;;;5011433;28;20038;-64
2021/12/11 12:07:27;;;;;;;7.22;1.77;;;16.30;99.90;;;;;;5015266;28;20478;-64
2021/12/11 12:09:58;;;;;;;9.48;2.33;;;16.30;99.90;;;;;;5015323;28;20026;-64
2021/12/11 12:12:27;;;;;;;8.57;1.83;;;16.20;99.90;;;;;;5015050;28;20049;-64
2021/12/11 12:14:56;;;;;;;8.15;2.00;;;16.20;99.90;;;;;;5015138;28;20030;-64
2021/12/11 12:17:26;;;;;;;13.57;2.45;;;16.20;99.90;;;;;;5015093;28;20145;-63
2021/12/11 12:19:57;;;;;;;8.82;2.05;;;16.20;99.90;;;;;;5014972;28;20026;-64
2021/12/11 12:22:26;;;;;;;14.85;1.50;;;16.10;99.90;;;;;;5014349;28;20097;-64
2021/12/11 12:24:55;;;;;;;14.38;1.60;;;16.00;99.90;;;;;;5014699;28;20113;-64
2021/12/11 12:27:26;;;;;;;15.88;2.22;;;16.00;99.90;;;;;;5014613;28;20033;-63
2021/12/11 12:29:55;;;;;;;14.57;1.80;;;16.00;99.90;;;;;;5014380;28;20046;-64
2021/12/11 12:32:26;;;;;;;10.07;1.45;;;16.00;99.90;;;;;;5013304;28;20390;-64
2021/12/11 12:34:58;;;;;;;8.45;1.65;;;16.00;99.90;;;;;;5013812;28;20030;-64
2021/12/11 12:37:26;;;;;;;8.30;1.55;;;15.90;99.90;;;;;;5013078;28;20053;-64
2021/12/11 12:39:56;;;;;;;10.20;1.85;;;15.90;99.90;;;;;;4994853;28;20058;-63
2021/12/11 12:42:53;;;;;;;10.45;1.52;;;15.80;99.90;;;;;;5010173;28;20034;-63
2021/12/11 12:45:29;;;;;;;9.18;1.60;;;15.70;99.90;;;;;;4993561;28;20557;-64
2021/12/11 12:48:03;;;;;;;6.40;1.15;;;15.80;99.90;;;;;;4994602;28;20046;-64
2021/12/11 12:50:39;;;;;;;12.00;2.25;;;15.90;99.90;;;;;;4994891;28;20069;-65
2021/12/11 12:53:06;;;;;;;13.52;2.47;;;15.80;99.90;;;;;;5011170;28;20034;-64
2021/12/11 12:55:40;;;;;;;11.35;2.58;;;15.80;99.90;;;;;;5014464;28;20033;-64
2021/12/11 12:58:15;;;;;;;12.27;2.53;;;15.90;99.90;;;;;;5014333;28;20026;-64
2021/12/11 13:01:00;;;;;;;13.93;2.83;;;15.90;99.90;;;;;;5014287;28;20108;-64
2021/12/11 13:03:31;;;;;;;10.95;1.58;;;15.90;99.90;;;;;;5012375;28;20030;-64
2021/12/11 13:06:12;;;;;;;9.55;1.80;;;15.90;99.90;;;;;;5014023;28;20054;-64
2021/12/11 13:08:45;;;;;;;11.93;1.90;;;15.90;99.90;;;;;;5029319;28;20065;-64
2021/12/11 13:11:18;;;;;;;11.73;1.13;;;15.90;99.90;;;;;;5013375;28;20132;-64
2021/12/11 13:13:48;;;;;;;17.65;2.28;;;16.00;99.90;;;;;;5028953;28;20383;-64
2021/12/11 13:16:24;;;;;;;8.30;1.48;;;16.00;99.90;;;;;;5013579;28;20026;-64
2021/12/11 13:19:04;;;;;;;8.55;1.00;;;15.90;99.90;;;;;;5013644;28;20029;-64
2021/12/11 13:21:42;;;;;;;10.70;1.33;;;15.90;99.90;;;;;;5013246;28;20116;-64
2021/12/11 13:24:12;;;;;;;13.80;1.65;;;16.00;99.90;;;;;;5012562;28;20038;-63
2021/12/11 13:26:43;;;;;;;8.38;1.65;;;15.90;99.90;;;;;;5014001;28;20425;-64